Time;durP1;ratioP1;P1;durP2;ratioP2;P2;SDS_P1;SDS_P2;PMS_P1;PMS_P2;Temp;Humidity;BMP_temperature;BMP_pressure;BME280_temperature;BME280_humidity;BME280_pressure;Samples;Min_cycle;Max_cycle;Signal;HPM_P1;HPM_P2
2021/04/13 11:12:43;;;;;;;3.30;1.30;;;;;;;16.45;27.33;101208.50;5098894;27;20385;-66
2021/04/13 11:15:40;;;;;;;2.45;1.10;;;;;;;16.38;26.35;101204.03;5067044;28;20044;-66
2021/04/13 11:26:39;;;;;;;3.63;1.00;;;;;;;10.25;30.12;101203.38;5063767;28;20352;-81
2021/04/13 11:29:27;;;;;;;;;;;;;;;10.39;30.59;101198.84;5038701;28;20040;-77
2021/04/13 11:31:55;;;;;;;11.10;1.00;;;;;;;10.34;30.10;101193.25;5052548;28;19925;-68
2021/04/13 11:34:55;;;;;;;1.17;0.70;;;;;;;9.71;31.60;101195.16;4999330;27;20061;-66
2021/04/13 11:37:39;;;;;;;7.18;0.88;;;;;;;9.49;31.60;101194.41;4991379;28;20042;-66
2021/04/13 11:40:32;;;;;;;2.00;0.90;;;;;;;9.51;33.61;101192.38;5019756;28;20049;-65
2021/04/13 11:42:58;;;;;;;4.47;1.03;;;;;;;10.02;31.76;101204.56;4999951;28;20046;-67
2021/04/13 11:45:45;;;;;;;5.40;1.00;;;;;;;9.67;31.53;101192.03;4854495;28;20427;-66
2021/04/13 11:48:32;;;;;;;3.80;1.10;;;;;;;10.01;30.60;101197.53;4979987;28;20743;-66
2021/04/13 11:51:08;;;;;;;1.77;1.05;;;;;;;10.35;30.97;101195.72;5004065;28;20030;-66
2021/04/13 11:53:39;;;;;;;4.43;1.42;;;;;;;9.54;31.66;101185.75;5002747;28;20121;-65
2021/04/13 11:56:32;;;;;;;2.55;1.42;;;;;;;10.04;31.22;101191.72;5010297;28;20369;-66
2021/04/13 11:59:12;;;;;;;7.22;1.20;;;;;;;10.20;31.32;101193.22;4995505;28;20053;-66
2021/04/13 12:01:39;;;;;;;1.92;0.90;;;;;;;10.72;29.90;101184.59;4991314;28;20061;-65
2021/04/13 12:04:08;;;;;;;3.15;1.27;;;;;;;10.79;30.75;101180.03;5003612;28;20026;-65
2021/04/13 12:06:57;;;;;;;10.02;1.13;;;;;;;10.91;30.02;101188.31;4995542;28;20448;-65
2021/04/13 12:09:44;;;;;;;3.40;1.13;;;;;;;10.90;30.50;101183.13;5016892;28;20038;-66
2021/04/13 12:12:32;;;;;;;4.18;1.50;;;;;;;10.24;31.35;101186.41;5005733;28;20093;-65
2021/04/13 12:14:57;;;;;;;8.32;0.77;;;;;;;10.48;31.91;101178.78;4995599;28;20057;-66
2021/04/13 12:17:44;;;;;;;1.83;1.08;;;;;;;10.61;31.02;101182.53;4987587;28;20125;-65
2021/04/13 12:20:41;;;;;;;2.42;1.15;;;;;;;10.75;30.29;101181.47;4991712;28;20133;-65
2021/04/13 12:23:06;;;;;;;2.53;1.00;;;;;;;10.84;31.69;101180.22;4988078;28;20169;-65
2021/04/13 12:26:03;;;;;;;1.75;1.08;;;;;;;10.75;32.91;101177.97;4995599;28;20133;-66
2021/04/13 12:28:29;;;;;;;1.67;0.95;;;;;;;11.12;31.62;101184.53;5002549;28;20495;-66
2021/04/13 12:31:14;;;;;;;3.05;1.15;;;;;;;11.16;31.44;101179.56;4985267;28;20030;-66
2021/04/13 12:34:05;;;;;;;3.53;1.20;;;;;;;11.00;31.05;101186.22;4988493;28;20026;-66
2021/04/13 12:36:50;;;;;;;4.47;1.23;;;;;;;11.24;30.78;101187.44;4983654;28;20030;-66
2021/04/13 12:39:44;;;;;;;3.70;1.02;;;;;;;10.77;31.28;101186.69;4976524;28;20031;-66
2021/04/13 12:42:40;;;;;;;9.98;1.55;;;;;;;10.80;31.53;101191.66;4975262;28;20109;-67
2021/04/13 12:45:19;;;;;;;2.38;1.20;;;;;;;10.77;32.67;101189.38;4975221;28;20448;-66
2021/04/13 12:48:06;;;;;;;2.63;1.20;;;;;;;10.76;32.99;101191.22;4976605;28;20077;-66
2021/04/13 12:50:38;;;;;;;4.75;1.35;;;;;;;10.53;33.24;101188.94;4636943;28;9999959;-66
2021/04/13 12:53:24;;;;;;;17.38;2.17;;;;;;;10.42;32.91;101193.09;4966163;28;20128;-66
2021/04/13 12:56:08;;;;;;;3.03;1.20;;;;;;;10.29;33.98;101191.16;4978612;28;20174;-65
2021/04/13 12:58:37;;;;;;;4.10;1.52;;;;;;;10.04;33.87;101196.31;4975366;28;20526;-66
2021/04/13 13:01:03;;;;;;;3.42;1.30;;;;;;;9.93;34.92;101197.72;4983445;28;20077;-66
2021/04/13 13:03:38;;;;;;;3.58;1.30;;;;;;;9.78;34.84;101192.50;4996553;28;20097;-66
2021/04/13 13:06:24;;;;;;;6.03;1.45;;;;;;;9.59;35.35;101194.88;4983660;28;20026;-66
2021/04/13 13:08:55;;;;;;;2.45;0.90;;;;;;;9.50;35.23;101196.06;4962297;28;20034;-67
2021/04/13 13:11:21;;;;;;;2.85;0.98;;;;;;;9.49;36.10;101194.41;4958079;28;20118;-66
2021/04/13 13:13:50;;;;;;;4.65;1.10;;;;;;;9.33;36.05;101201.78;4989038;28;20035;-66
2021/04/13 13:16:21;;;;;;;2.88;1.42;;;;;;;9.22;36.88;101199.66;4979475;28;20066;-66
2021/04/13 13:18:49;;;;;;;2.65;1.13;;;;;;;9.41;35.94;101197.28;4981119;28;20034;-66
2021/04/13 13:21:20;;;;;;;2.72;1.20;;;;;;;9.61;36.02;101192.81;4979734;28;20034;-66
2021/04/13 13:23:54;;;;;;;4.05;1.25;;;;;;;9.74;35.71;101202.81;4983173;28;20069;-67
2021/04/13 13:26:25;;;;;;;1.25;1.10;;;;;;;9.74;35.36;101200.13;4974474;28;20081;-66
2021/04/13 13:28:51;;;;;;;16.60;4.93;;;;;;;9.79;36.09;101202.22;4976909;28;20176;-67
2021/04/13 13:31:17;;;;;;;6.50;1.65;;;;;;;9.75;36.09;101195.59;4976869;28;20064;-65
2021/04/13 13:33:44;;;;;;;7.80;1.67;;;;;;;9.84;36.03;101193.53;4978590;28;20039;-65
2021/04/13 13:36:10;;;;;;;2.35;1.10;;;;;;;10.15;36.22;101201.09;4987242;28;20050;-67
2021/04/13 13:38:37;;;;;;;3.20;1.33;;;;;;;10.38;35.22;101197.19;4974167;28;20035;-68
2021/04/13 13:41:03;;;;;;;4.70;1.30;;;;;;;10.37;34.36;101200.91;4989053;28;20031;-68
2021/04/13 13:43:31;;;;;;;2.95;0.95;;;;;;;10.20;35.34;101187.00;4978198;28;20048;-70
2021/04/13 13:46:21;;;;;;;2.25;1.20;;;;;;;10.17;36.83;101193.63;4981384;28;20039;-69
2021/04/13 13:48:47;;;;;;;2.42;1.30;;;;;;;10.19;36.10;101185.34;4970131;28;20030;-68
2021/04/13 13:51:42;;;;;;;5.85;1.38;;;;;;;10.05;35.94;101195.28;4975786;28;20031;-69
2021/04/13 13:54:23;;;;;;;3.53;1.25;;;;;;;9.87;36.14;101191.28;4999118;28;20046;-68
2021/04/13 13:56:51;;;;;;;3.42;1.05;;;;;;;9.75;37.42;101195.59;4982313;28;20033;-68
2021/04/13 13:59:20;;;;;;;3.50;1.63;;;;;;;9.49;38.12;101189.03;4979491;28;20086;-68
2021/04/13 14:01:59;;;;;;;4.75;1.40;;;;;;;9.34;38.85;101191.88;4986547;28;20027;-69
2021/04/13 14:04:43;;;;;;;4.50;1.45;;;;;;;9.07;39.87;101184.47;4981764;28;20027;-71
2021/04/13 14:07:09;;;;;;;5.38;1.20;;;;;;;9.29;39.28;101192.47;4982770;28;20721;-70
2021/04/13 14:09:36;;;;;;;9.13;2.05;;;;;;;9.19;39.74;101183.94;4996567;28;20027;-70
2021/04/13 14:12:27;;;;;;;2.25;1.20;;;;;;;8.98;40.65;101193.72;4983830;28;20038;-70
2021/04/13 14:14:53;;;;;;;4.53;1.23;;;;;;;8.91;40.20;101192.84;4975603;28;20038;-70
2021/04/13 14:17:21;;;;;;;13.65;6.53;;;;;;;8.83;41.82;101180.38;4973492;28;20063;-70
2021/04/13 14:19:46;;;;;;;3.00;1.50;;;;;;;8.86;42.16;101185.38;4980557;28;20037;-70
2021/04/13 14:22:14;;;;;;;3.90;1.75;;;;;;;8.94;42.42;101176.31;4973617;28;20038;-70
2021/04/13 14:24:42;;;;;;;5.10;1.42;;;;;;;9.02;43.57;101186.09;4977071;28;20046;-70
2021/04/13 14:27:18;;;;;;;5.22;1.80;;;;;;;8.84;43.99;101183.91;4986543;28;20073;-70
2021/04/13 14:30:11;;;;;;;2.03;1.20;;;;;;;8.84;43.66;101191.97;4976886;28;20038;-69
2021/04/13 14:32:37;;;;;;;8.63;1.65;;;;;;;8.87;43.20;101188.88;4977472;28;20035;-69
2021/04/13 14:35:04;;;;;;;14.23;1.55;;;;;;;8.93;42.73;101178.19;4974221;28;20042;-70
2021/04/13 14:37:37;;;;;;;3.88;1.40;;;;;;;8.92;42.67;101181.06;4978217;28;20038;-69
2021/04/13 14:40:07;;;;;;;3.67;1.10;;;;;;;9.03;42.98;101185.91;4982350;28;20116;-69
2021/04/13 14:42:33;;;;;;;5.10;1.60;;;;;;;9.08;43.10;101180.75;4981294;28;20039;-70
2021/04/13 14:44:59;;;;;;;3.05;1.38;;;;;;;9.16;42.46;101177.09;4973142;28;20484;-70
2021/04/13 14:47:27;;;;;;;5.20;1.30;;;;;;;9.16;42.43;101181.63;4975124;28;20043;-70
2021/04/13 14:49:53;;;;;;;6.28;1.27;;;;;;;9.23;41.75;101169.06;4973788;28;20061;-70
2021/04/13 14:52:19;;;;;;;3.13;1.40;;;;;;;9.34;42.00;101179.25;4972270;28;20428;-70
2021/04/13 14:54:45;;;;;;;3.90;1.50;;;;;;;9.42;41.69;101170.19;4971166;28;20057;-72
2021/04/13 14:57:10;;;;;;;3.92;1.20;;;;;;;9.53;41.76;101166.09;4971400;28;20030;-71
2021/04/13 14:59:36;;;;;;;3.03;1.02;;;;;;;9.89;40.92;101172.22;4965201;28;20125;-69
2021/04/13 15:02:02;;;;;;;13.38;2.35;;;;;;;10.06;40.77;101168.13;4631943;28;10000619;-69
2021/04/13 15:04:27;;;;;;;8.30;2.25;;;;;;;10.48;39.39;101164.47;4983881;28;20026;-69
2021/04/13 15:06:55;;;;;;;5.80;1.58;;;;;;;10.59;38.96;101169.25;4980130;28;20038;-71
2021/04/13 15:09:21;;;;;;;4.57;1.50;;;;;;;10.91;38.86;101166.75;4972150;28;20066;-70
2021/04/13 15:11:46;;;;;;;2.45;1.10;;;;;;;11.06;37.21;101157.59;4969756;28;20061;-71
2021/04/13 15:14:12;;;;;;;2.28;1.45;;;;;;;10.19;38.77;101161.97;4971317;28;20034;-71
2021/04/13 15:16:38;;;;;;;6.50;1.15;;;;;;;10.46;38.93;101166.56;4971751;28;20096;-71
2021/04/13 15:19:03;;;;;;;2.22;1.00;;;;;;;10.92;37.44;101152.25;4980671;28;20034;-71
2021/04/13 15:21:32;;;;;;;3.97;1.60;;;;;;;11.03;37.36;101152.63;4989131;28;20488;-69
2021/04/13 15:24:01;;;;;;;1.85;1.10;;;;;;;10.89;38.09;101152.66;4978244;28;20130;-69
2021/04/13 15:26:26;;;;;;;1.75;1.30;;;;;;;10.61;37.92;101151.03;4981155;28;20038;-69
2021/04/13 15:28:56;;;;;;;3.30;1.35;;;;;;;10.18;38.79;101138.75;4950025;28;20031;-69
2021/04/13 15:31:22;;;;;;;10.57;2.42;;;;;;;10.31;38.91;101137.09;4983046;28;20156;-69
2021/04/13 15:33:55;;;;;;;4.47;1.70;;;;;;;10.54;38.73;101139.41;4987482;28;20042;-68
2021/04/13 15:36:50;;;;;;;7.35;1.33;;;;;;;10.19;40.23;101136.88;4959311;28;20084;-69
2021/04/13 15:39:16;;;;;;;6.32;1.35;;;;;;;10.45;39.74;101129.88;4982643;28;20519;-69
2021/04/13 15:41:45;;;;;;;3.35;1.23;;;;;;;10.30;39.88;101132.75;4986865;28;20038;-70
2021/04/13 15:44:26;;;;;;;4.72;1.10;;;;;;;10.33;39.32;101132.34;4980508;28;20685;-69
2021/04/13 15:46:54;;;;;;;7.25;1.45;;;;;;;11.24;38.75;101121.84;4968990;28;20594;-69
2021/04/13 15:49:22;;;;;;;2.75;1.40;;;;;;;12.21;35.98;101123.66;4983759;28;20023;-68
2021/04/13 15:51:49;;;;;;;4.05;1.40;;;;;;;12.37;36.14;101127.69;4975937;28;20422;-68
2021/04/13 15:54:14;;;;;;;4.00;1.48;;;;;;;13.65;35.29;101122.81;4985169;28;20026;-67
2021/04/13 15:56:41;;;;;;;12.52;1.27;;;;;;;14.65;32.87;101115.03;4981113;28;20030;-68
2021/04/13 15:59:08;;;;;;;3.10;1.52;;;;;;;15.32;30.26;101119.19;4976020;28;20035;-69
2021/04/13 16:01:34;;;;;;;5.85;1.63;;;;;;;15.88;30.66;101118.63;4988180;28;20046;-68
2021/04/13 16:04:00;;;;;;;5.05;1.70;;;;;;;15.64;29.93;101107.84;4983241;28;20065;-68
2021/04/13 16:06:25;;;;;;;4.18;1.58;;;;;;;16.18;28.87;101119.41;4996790;28;20046;-68
2021/04/13 16:08:51;;;;;;;5.18;1.73;;;;;;;15.13;30.34;101118.56;4976698;28;20215;-67
2021/04/13 16:11:17;;;;;;;4.50;1.70;;;;;;;14.29;31.59;101115.00;4989670;28;20057;-69
2021/04/13 16:13:43;;;;;;;2.28;1.55;;;;;;;14.11;32.13;101118.59;4993801;28;20034;-68
2021/04/13 16:16:08;;;;;;;2.63;1.80;;;;;;;13.67;32.59;101112.59;4990576;28;20038;-70
2021/04/13 16:18:38;;;;;;;7.55;1.98;;;;;;;13.01;34.11;101122.09;4986762;28;20076;-70
2021/04/13 16:21:04;;;;;;;4.65;1.88;;;;;;;12.39;35.71;101114.81;4987383;28;20030;-70
2021/04/13 16:23:30;;;;;;;3.70;2.40;;;;;;;12.11;36.56;101113.34;4996088;28;20031;-70
2021/04/13 16:26:10;;;;;;;6.45;2.10;;;;;;;12.37;36.32;101113.34;4991180;28;20407;-69
2021/04/13 16:28:37;;;;;;;2.85;1.90;;;;;;;12.44;35.90;101108.72;4970104;28;20119;-69
2021/04/13 16:31:28;;;;;;;7.13;1.95;;;;;;;12.06;36.84;101109.66;4986885;28;20067;-69
2021/04/13 16:33:58;;;;;;;3.55;1.88;;;;;;;11.35;38.14;101110.41;4979797;28;20106;-69
2021/04/13 16:36:23;;;;;;;8.20;2.22;;;;;;;11.25;37.63;101113.56;4991044;28;20049;-70
2021/04/13 16:38:49;;;;;;;10.45;1.80;;;;;;;10.90;38.60;101111.19;4977750;28;20034;-70
2021/04/13 16:41:18;;;;;;;12.20;6.55;;;;;;;10.91;39.10;101104.75;4979606;28;20032;-71
2021/04/13 16:43:47;;;;;;;5.15;2.83;;;;;;;10.68;39.03;101108.75;4984150;28;20130;-67
2021/04/13 16:46:17;;;;;;;6.60;2.50;;;;;;;10.06;41.00;101108.09;4976393;28;20060;-70
2021/04/13 16:48:48;;;;;;;5.35;2.30;;;;;;;9.92;41.32;101107.25;4980543;28;20031;-71
2021/04/13 16:51:29;;;;;;;8.20;2.20;;;;;;;9.87;42.35;101113.25;4985609;28;20061;-71
2021/04/13 16:53:55;;;;;;;51.58;25.23;;;;;;;9.81;41.54;101114.88;4978698;28;20035;-69
2021/04/13 16:56:21;;;;;;;29.55;16.67;;;;;;;9.66;42.65;101115.03;4979489;28;20093;-70
2021/04/13 16:58:53;;;;;;;14.65;7.13;;;;;;;9.58;41.99;101117.91;4984724;28;21018;-70
2021/04/13 17:01:26;;;;;;;13.50;7.32;;;;;;;9.45;43.24;101115.16;4977155;28;20034;-70
2021/04/13 17:03:59;;;;;;;6.47;3.80;;;;;;;9.37;42.37;101114.31;4972779;28;20030;-71
2021/04/13 17:06:46;;;;;;;15.43;8.23;;;;;;;9.21;42.75;101109.28;4977071;28;20121;-69
2021/04/13 17:09:17;;;;;;;21.88;14.52;;;;;;;9.22;43.63;101117.16;4976352;28;20042;-69
2021/04/13 17:11:55;;;;;;;11.73;3.70;;;;;;;9.29;44.16;101119.88;4974122;28;20027;-70
2021/04/13 17:14:30;;;;;;;6.68;2.70;;;;;;;9.47;44.30;101116.66;4973626;28;20081;-69
2021/04/13 17:17:02;;;;;;;8.45;3.10;;;;;;;9.85;42.47;101114.47;4985752;28;20038;-69
2021/04/13 17:19:32;;;;;;;11.25;5.00;;;;;;;10.95;39.06;101115.94;4631241;28;10000070;-70
2021/04/13 17:22:04;;;;;;;6.93;2.70;;;;;;;11.25;38.65;101118.97;4970182;28;20551;-68
2021/04/13 17:24:39;;;;;;;10.30;4.13;;;;;;;10.97;39.51;101119.25;4972219;28;20074;-71
2021/04/13 17:27:08;;;;;;;7.78;3.25;;;;;;;10.59;40.00;101117.25;4974655;28;20043;-70
2021/04/13 17:29:45;;;;;;;7.55;3.22;;;;;;;10.16;41.57;101110.38;4978542;28;20042;-69
2021/04/13 17:32:12;;;;;;;12.52;2.85;;;;;;;9.97;42.43;101115.53;4970945;28;20041;-69
2021/04/13 17:34:38;;;;;;;7.43;3.22;;;;;;;9.84;42.18;101113.66;4969757;28;20038;-70
2021/04/13 17:37:11;;;;;;;10.30;2.95;;;;;;;9.84;42.62;101112.81;4973879;28;20035;-71
2021/04/13 17:39:41;;;;;;;6.68;3.45;;;;;;;9.77;42.86;101118.19;4971002;28;20022;-72
2021/04/13 17:42:11;;;;;;;9.15;3.40;;;;;;;10.58;41.02;101113.69;4973187;28;21624;-70
2021/04/13 17:44:47;;;;;;;4.82;2.85;;;;;;;10.63;40.81;101113.94;4989771;28;20039;-70
2021/04/13 17:47:21;;;;;;;6.78;3.17;;;;;;;10.86;40.05;101111.81;4974463;28;20042;-71
2021/04/13 17:49:48;;;;;;;6.35;2.50;;;;;;;10.81;40.67;101113.28;4983046;28;20034;-70
2021/04/13 17:52:15;;;;;;;13.48;4.78;;;;;;;10.61;40.27;101107.09;4973465;28;20423;-70
2021/04/13 17:54:41;;;;;;;5.72;3.60;;;;;;;10.40;41.22;101115.16;4973623;28;20045;-70
2021/04/13 17:57:15;;;;;;;12.23;3.50;;;;;;;10.09;41.16;101111.19;4972442;28;20030;-72
2021/04/13 17:59:41;;;;;;;;;;;;;;;9.82;42.00;101115.72;4976358;28;20053;-69
2021/04/13 18:02:25;;;;;;;7.38;4.22;;;;;;;9.43;43.83;101110.00;4982171;28;19964;-70
2021/04/13 18:05:03;;;;;;;7.15;3.78;;;;;;;9.17;44.45;101102.66;4985832;28;20030;-70
2021/04/13 18:07:35;;;;;;;8.52;4.38;;;;;;;8.94;45.52;101109.16;4978104;28;20575;-70
2021/04/13 18:10:07;;;;;;;11.43;4.50;;;;;;;8.75;45.82;101114.19;4983724;28;20381;-70
2021/04/13 18:12:40;;;;;;;11.07;4.50;;;;;;;8.57;47.23;101113.88;4982491;28;20089;-71
2021/04/13 18:15:30;;;;;;;6.78;3.80;;;;;;;8.28;48.37;101118.38;4979723;28;20081;-70
2021/04/13 18:18:11;;;;;;;8.43;3.78;;;;;;;8.08;47.90;101119.00;4978403;28;20045;-69
2021/04/13 18:20:46;;;;;;;7.95;4.30;;;;;;;7.84;51.16;101123.72;4980782;28;20085;-69
2021/04/13 18:23:18;;;;;;;10.90;4.72;;;;;;;7.66;51.57;101132.19;4979484;28;20034;-66
2021/04/13 18:26:06;;;;;;;8.60;4.90;;;;;;;7.39;53.06;101133.72;4973593;28;20078;-67
2021/04/13 18:28:58;;;;;;;8.68;4.50;;;;;;;7.22;51.00;101133.91;4974727;28;20038;-67
2021/04/13 18:31:31;;;;;;;10.38;5.25;;;;;;;7.09;53.38;101136.41;4992441;28;20046;-67
2021/04/13 18:34:06;;;;;;;14.13;5.75;;;;;;;6.96;55.49;101139.72;4986522;28;20030;-67
2021/04/13 18:36:36;;;;;;;11.05;6.10;;;;;;;6.79;54.58;101131.88;4977507;28;20035;-71
2021/04/13 18:39:03;;;;;;;14.02;5.18;;;;;;;6.59;56.49;101140.44;4976745;28;20046;-71
2021/04/13 18:41:40;;;;;;;10.80;5.68;;;;;;;6.52;54.29;101131.47;4983144;28;20034;-71
2021/04/13 18:44:17;;;;;;;10.05;5.00;;;;;;;6.28;58.03;101141.38;4974769;28;20106;-71
2021/04/13 18:47:12;;;;;;;14.52;5.30;;;;;;;6.26;57.82;101140.72;4975285;28;20125;-70
2021/04/13 18:49:42;;;;;;;;;;;;;;;6.10;57.65;101149.69;4980429;28;20069;-70
2021/04/13 18:52:15;;;;;;;10.73;5.18;;;;;;;5.85;59.71;101144.47;4971716;28;19970;-70
2021/04/13 18:54:46;;;;;;;9.53;5.67;;;;;;;5.65;60.70;101145.91;4974179;28;20046;-69
2021/04/13 18:57:17;;;;;;;11.48;5.72;;;;;;;5.57;59.83;101149.50;4977286;28;20224;-70
2021/04/13 18:59:53;;;;;;;12.18;6.90;;;;;;;5.54;60.37;101156.00;4976411;28;20108;-69
2021/04/13 19:02:34;;;;;;;8.80;5.10;;;;;;;5.57;58.83;101149.50;4971881;28;20495;-70
2021/04/13 19:05:02;;;;;;;10.27;4.63;;;;;;;5.42;61.06;101142.22;4979303;28;20092;-69
2021/04/13 19:07:34;;;;;;;8.35;4.05;;;;;;;5.30;60.52;101159.63;4975547;28;20030;-70
2021/04/13 19:10:04;;;;;;;8.90;4.03;;;;;;;5.17;61.35;101160.16;4975549;28;20030;-70
2021/04/13 19:12:39;;;;;;;10.57;4.90;;;;;;;5.18;62.11;101156.47;4977112;28;20361;-70
2021/04/13 19:15:09;;;;;;;16.67;4.97;;;;;;;5.05;63.34;101166.88;4980841;28;20061;-71
2021/04/13 19:17:51;;;;;;;16.00;5.45;;;;;;;4.95;63.25;101167.88;4985103;28;20427;-68
2021/04/13 19:20:28;;;;;;;10.40;5.82;;;;;;;4.98;64.27;101172.03;4971839;28;20481;-70
2021/04/13 19:23:11;;;;;;;14.88;6.88;;;;;;;4.96;63.83;101168.69;4980139;28;20034;-71
2021/04/13 19:25:37;;;;;;;17.23;9.07;;;;;;;4.93;64.91;101174.38;4985158;28;20074;-70
2021/04/13 19:28:24;;;;;;;18.75;9.80;;;;;;;4.91;65.49;101169.22;4971817;28;20058;-68
2021/04/13 19:30:58;;;;;;;17.05;9.68;;;;;;;4.86;65.28;101176.06;4634837;28;9999686;-67
2021/04/13 19:33:30;;;;;;;28.45;13.02;;;;;;;4.82;65.89;101172.91;4983282;28;20042;-67
2021/04/13 19:36:09;;;;;;;22.85;11.50;;;;;;;4.72;66.20;101173.09;4970538;28;20519;-66
2021/04/13 19:38:42;;;;;;;17.23;10.07;;;;;;;4.70;65.38;101183.09;4973657;28;20534;-67
2021/04/13 19:41:24;;;;;;;15.70;10.43;;;;;;;4.66;65.98;101179.09;4971329;28;20390;-66
2021/04/13 19:43:55;;;;;;;21.42;9.85;;;;;;;4.80;65.29;101189.09;4966196;28;20052;-66
2021/04/13 19:46:24;;;;;;;12.85;8.10;;;;;;;4.82;65.47;101191.59;4968073;28;20073;-68
2021/04/13 19:49:04;;;;;;;14.30;8.07;;;;;;;4.78;65.02;101190.28;4981233;28;20066;-66
2021/04/13 19:51:45;;;;;;;12.90;8.38;;;;;;;4.75;66.03;101191.44;4973257;28;20476;-66
2021/04/13 19:54:20;;;;;;;12.50;7.75;;;;;;;4.79;66.63;101195.44;4977060;28;20620;-66
2021/04/13 19:56:50;;;;;;;13.85;7.47;;;;;;;4.82;66.69;101199.63;4977936;28;20040;-67
2021/04/13 19:59:20;;;;;;;9.73;6.53;;;;;;;4.89;66.28;101194.41;4972290;28;20129;-68
2021/04/13 20:01:49;;;;;;;9.52;6.47;;;;;;;4.95;64.38;101197.25;4974873;28;20515;-67
2021/04/13 20:04:21;;;;;;;28.88;10.52;;;;;;;5.11;64.46;101193.69;4992511;28;20034;-67
2021/04/13 20:06:47;;;;;;;22.67;12.00;;;;;;;5.33;63.97;101194.00;4991931;28;20069;-67
2021/04/13 20:09:17;;;;;;;12.43;7.93;;;;;;;5.37;64.36;101198.00;4977127;28;20070;-69
2021/04/13 20:11:54;;;;;;;18.45;9.35;;;;;;;5.45;64.05;101197.13;4964549;28;20043;-67
2021/04/13 20:14:37;;;;;;;22.30;8.50;;;;;;;5.46;63.16;101193.44;4980244;28;20121;-67
2021/04/13 20:17:02;;;;;;;34.53;17.33;;;;;;;5.76;62.67;101199.00;4988317;28;20034;-69
2021/04/13 20:19:30;;;;;;;37.95;17.45;;;;;;;6.10;59.80;101197.81;4974461;28;20101;-69
2021/04/13 20:22:03;;;;;;;31.73;16.85;;;;;;;5.91;62.57;101209.78;4976008;28;20043;-70
2021/04/13 20:24:42;;;;;;;31.77;16.67;;;;;;;5.62;64.31;101194.38;4995837;28;20046;-71
2021/04/13 20:27:16;;;;;;;28.98;15.48;;;;;;;5.46;64.22;101204.13;4990633;28;20051;-69
2021/04/13 20:29:48;;;;;;;23.25;11.77;;;;;;;5.27;65.19;101202.69;4984241;28;20029;-69
2021/04/13 20:32:29;;;;;;;19.88;11.50;;;;;;;5.24;63.48;101203.03;4980297;28;20035;-69
2021/04/13 20:40:30;;;;;;;23.27;11.65;;;;;;;5.54;62.14;101204.09;4975364;28;20054;-70
2021/04/13 20:43:01;;;;;;;25.25;12.52;;;;;;;5.54;62.25;101197.94;4980759;28;20031;-70
2021/04/13 20:45:30;;;;;;;17.95;10.55;;;;;;;5.51;63.75;101204.44;4978167;28;20034;-71
2021/04/13 20:48:04;;;;;;;17.35;10.50;;;;;;;5.42;65.21;101213.50;4975827;28;20041;-70
2021/04/13 20:50:38;;;;;;;16.98;9.82;;;;;;;5.41;62.81;101219.84;4983167;28;20031;-70
2021/04/13 20:53:11;;;;;;;22.30;12.07;;;;;;;5.44;63.13;101219.50;4981092;28;20706;-71
2021/04/13 20:55:44;;;;;;;22.40;11.18;;;;;;;5.52;62.46;101224.81;4980761;28;20145;-69
2021/04/13 20:58:25;;;;;;;16.77;9.70;;;;;;;5.66;61.96;101233.97;4982436;28;20050;-69
2021/04/13 21:01:03;;;;;;;16.75;8.88;;;;;;;5.72;62.11;101227.09;4982000;28;20030;-69
2021/04/13 21:03:35;;;;;;;18.05;8.70;;;;;;;5.76;62.06;101232.94;4975137;28;20069;-70
2021/04/13 21:06:10;;;;;;;21.25;9.68;;;;;;;5.67;64.85;101237.47;4976675;28;20043;-70
2021/04/13 21:08:40;;;;;;;17.40;8.35;;;;;;;5.60;62.76;101240.00;4977053;28;20033;-70
2021/04/13 21:11:18;;;;;;;21.42;10.50;;;;;;;5.61;62.07;101231.00;4983721;28;20668;-69
2021/04/13 21:13:46;;;;;;;15.27;9.27;;;;;;;5.66;61.39;101227.78;4977522;28;20073;-69
2021/04/13 21:16:16;;;;;;;15.70;9.70;;;;;;;5.66;62.43;101242.00;4975082;28;20026;-69
2021/04/13 21:18:44;;;;;;;24.75;10.80;;;;;;;5.77;61.93;101243.44;4985260;28;20042;-69
2021/04/13 21:21:23;;;;;;;24.38;10.23;;;;;;;5.77;61.73;101246.09;4975095;28;20583;-69
2021/04/13 21:23:52;;;;;;;20.80;10.23;;;;;;;5.80;61.14;101239.59;4972397;28;20039;-70
2021/04/13 21:26:28;;;;;;;19.13;9.73;;;;;;;5.76;62.21;101236.44;4980626;28;20043;-70
2021/04/13 21:29:01;;;;;;;18.50;9.55;;;;;;;5.69;63.03;101243.47;4982479;28;20034;-70
2021/04/13 21:31:46;;;;;;;15.18;8.98;;;;;;;5.60;63.51;101239.16;4981840;28;20088;-70
2021/04/13 21:34:22;;;;;;;17.55;9.00;;;;;;;5.73;61.43;101236.78;4984000;28;20039;-71
2021/04/13 21:36:51;;;;;;;16.95;9.45;;;;;;;5.86;58.34;101228.22;4989282;28;20069;-70
2021/04/13 21:39:20;;;;;;;15.60;9.80;;;;;;;5.78;59.55;101242.44;4988194;28;20046;-69
2021/04/13 21:42:22;;;;;;;15.90;9.05;;;;;;;5.77;60.39;101237.28;4975916;28;20038;-69
2021/04/13 21:44:54;;;;;;;22.08;9.63;;;;;;;5.49;60.39;101243.88;4971149;28;20051;-70
2021/04/13 21:47:26;;;;;;;19.27;8.55;;;;;;;5.23;61.48;101244.94;4982518;28;20022;-74
2021/04/13 21:49:55;;;;;;;16.05;9.35;;;;;;;4.91;63.65;101241.31;4982555;28;20488;-69
2021/04/13 21:52:35;;;;;;;13.95;9.02;;;;;;;4.53;64.67;101247.16;4979826;28;20027;-70
2021/04/13 21:55:09;;;;;;;17.42;10.00;;;;;;;4.39;65.64;101261.13;4978406;28;20392;-70
2021/04/13 21:57:42;;;;;;;23.35;10.55;;;;;;;4.27;65.27;101259.78;4976393;28;20039;-71
2021/04/13 22:00:28;;;;;;;17.92;10.13;;;;;;;4.51;64.26;101259.00;4978207;28;20034;-71
2021/04/13 22:03:21;;;;;;;26.05;10.65;;;;;;;4.60;63.65;101257.16;4966110;28;20570;-70
2021/04/13 22:05:53;;;;;;;17.70;9.65;;;;;;;4.51;64.65;101259.00;4971920;28;20038;-70
2021/04/13 22:08:22;;;;;;;16.60;10.15;;;;;;;4.20;66.19;101247.09;4980599;28;20043;-70
2021/04/13 22:11:05;;;;;;;18.20;10.18;;;;;;;3.83;67.78;101255.47;4985530;28;20470;-71
2021/04/13 22:13:37;;;;;;;18.35;11.07;;;;;;;3.54;69.14;101248.69;4984825;28;20074;-69
2021/04/13 22:16:04;;;;;;;18.88;10.68;;;;;;;3.34;69.37;101256.91;4984058;28;20043;-69
2021/04/13 22:18:36;;;;;;;19.33;10.55;;;;;;;3.30;69.06;101255.53;4981223;28;20029;-70
2021/04/13 22:21:16;;;;;;;16.42;10.25;;;;;;;3.11;69.65;101252.09;4982176;28;20109;-69
2021/04/13 22:23:50;;;;;;;22.02;11.48;;;;;;;2.85;71.73;101255.56;4969769;28;20515;-70
2021/04/13 22:26:16;;;;;;;44.28;17.65;;;;;;;2.70;72.45;101249.13;4981579;28;20090;-70
2021/04/13 22:28:45;;;;;;;45.47;19.80;;;;;;;2.54;73.24;101253.28;4977174;28;20031;-69
2021/04/13 22:31:37;;;;;;;43.28;21.40;;;;;;;2.51;72.88;101250.09;4973280;28;20062;-70
2021/04/13 22:34:06;;;;;;;38.00;20.65;;;;;;;2.51;72.72;101250.94;4974323;28;20690;-68
2021/04/13 22:36:47;;;;;;;39.38;18.25;;;;;;;2.61;73.42;101257.00;4974630;28;20036;-68
2021/04/13 22:39:15;;;;;;;48.30;24.08;;;;;;;2.55;73.47;101254.97;4973687;28;20050;-69
2021/04/13 22:41:44;;;;;;;55.53;21.13;;;;;;;2.40;74.27;101252.00;4981782;28;20391;-70
2021/04/13 22:44:11;;;;;;;38.50;18.33;;;;;;;2.31;74.42;101256.41;4981448;28;20046;-70
2021/04/13 22:46:41;;;;;;;40.15;20.58;;;;;;;2.23;75.25;101247.50;4977917;28;20042;-69
2021/04/13 22:49:08;;;;;;;46.92;20.60;;;;;;;2.12;75.87;101246.75;4976451;28;20034;-69
2021/04/13 22:51:37;;;;;;;48.15;19.58;;;;;;;2.01;76.44;101253.09;4973941;28;20030;-69
2021/04/13 22:54:24;;;;;;;37.47;18.75;;;;;;;1.98;76.03;101253.38;4976981;28;20045;-69
2021/04/13 22:57:01;;;;;;;44.42;19.63;;;;;;;2.00;75.69;101250.59;4982948;28;20543;-68
2021/04/13 22:59:34;;;;;;;56.80;20.33;;;;;;;1.88;76.93;101242.81;4986108;28;20400;-68
2021/04/13 23:02:00;;;;;;;30.40;15.77;;;;;;;2.01;76.42;101253.09;4981275;28;20588;-68
2021/04/13 23:04:26;;;;;;;29.95;15.20;;;;;;;2.14;74.82;101251.91;4981713;28;20500;-69
2021/04/13 23:06:52;;;;;;;22.50;12.57;;;;;;;2.16;75.27;101258.75;4980058;28;20416;-68
2021/04/13 23:09:18;;;;;;;25.73;14.68;;;;;;;2.39;74.88;101254.81;4987207;28;20026;-69
2021/04/13 23:11:46;;;;;;;24.50;13.73;;;;;;;2.25;74.42;101261.50;4986287;28;20034;-68
2021/04/13 23:14:13;;;;;;;26.13;13.90;;;;;;;2.05;75.31;101259.78;4975895;28;20026;-68
2021/04/13 23:16:39;;;;;;;29.05;13.20;;;;;;;1.89;75.63;101262.25;4978554;28;20065;-68
2021/04/13 23:19:05;;;;;;;23.80;12.20;;;;;;;1.71;76.56;101265.69;4979190;28;20039;-68